sensor_id;sensor_type;location;lat;lon;timestamp;temperature;humidity
1405;DHT22;697;51.114;6.542;2023-06-14T00:01:46;21.70;45.40
1405;DHT22;697;51.114;6.542;2023-06-14T00:04:14;21.70;45.40
1405;DHT22;697;51.114;6.542;2023-06-14T00:06:42;21.70;46.20
1405;DHT22;697;51.114;6.542;2023-06-14T00:09:10;21.60;45.70
1405;DHT22;697;51.114;6.542;2023-06-14T00:11:39;21.50;45.80
1405;DHT22;697;51.114;6.542;2023-06-14T00:14:06;21.50;46.00
1405;DHT22;697;51.114;6.542;2023-06-14T00:16:33;21.40;46.10
1405;DHT22;697;51.114;6.542;2023-06-14T00:19:00;21.40;46.40
1405;DHT22;697;51.114;6.542;2023-06-14T00:21:28;21.40;46.30
1405;DHT22;697;51.114;6.542;2023-06-14T00:23:55;21.40;46.50
1405;DHT22;697;51.114;6.542;2023-06-14T00:26:22;21.40;46.80
1405;DHT22;697;51.114;6.542;2023-06-14T00:28:50;21.20;46.70
1405;DHT22;697;51.114;6.542;2023-06-14T00:31:16;21.20;46.80
1405;DHT22;697;51.114;6.542;2023-06-14T00:33:44;21.20;46.80
1405;DHT22;697;51.114;6.542;2023-06-14T00:36:10;21.20;47.10
1405;DHT22;697;51.114;6.542;2023-06-14T00:38:37;21.10;47.10
1405;DHT22;697;51.114;6.542;2023-06-14T00:41:04;21.10;47.20
1405;DHT22;697;51.114;6.542;2023-06-14T00:43:31;21.10;47.30
1405;DHT22;697;51.114;6.542;2023-06-14T00:46:01;21.00;47.60
1405;DHT22;697;51.114;6.542;2023-06-14T00:48:28;21.10;47.70
1405;DHT22;697;51.114;6.542;2023-06-14T00:50:56;21.00;47.80
1405;DHT22;697;51.114;6.542;2023-06-14T00:53:23;21.00;48.10
1405;DHT22;697;51.114;6.542;2023-06-14T00:55:50;20.90;48.00
1405;DHT22;697;51.114;6.542;2023-06-14T00:58:17;20.90;48.00
1405;DHT22;697;51.114;6.542;2023-06-14T01:00:44;20.90;48.10
1405;DHT22;697;51.114;6.542;2023-06-14T01:03:12;20.90;48.50
1405;DHT22;697;51.114;6.542;2023-06-14T01:05:44;20.80;48.40
1405;DHT22;697;51.114;6.542;2023-06-14T01:08:28;20.80;48.40
1405;DHT22;697;51.114;6.542;2023-06-14T01:11:02;20.70;48.50
1405;DHT22;697;51.114;6.542;2023-06-14T01:13:34;20.60;48.60
1405;DHT22;697;51.114;6.542;2023-06-14T01:16:02;20.60;48.80
1405;DHT22;697;51.114;6.542;2023-06-14T01:18:30;20.60;48.80
1405;DHT22;697;51.114;6.542;2023-06-14T01:20:57;20.50;49.00
1405;DHT22;697;51.114;6.542;2023-06-14T01:23:25;20.40;49.00
1405;DHT22;697;51.114;6.542;2023-06-14T01:25:58;20.30;49.10
1405;DHT22;697;51.114;6.542;2023-06-14T01:28:26;20.30;49.30
1405;DHT22;697;51.114;6.542;2023-06-14T01:31:00;20.20;49.30
1405;DHT22;697;51.114;6.542;2023-06-14T01:33:30;20.10;49.20
1405;DHT22;697;51.114;6.542;2023-06-14T01:35:58;20.10;49.40
1405;DHT22;697;51.114;6.542;2023-06-14T01:38:27;20.10;49.60
1405;DHT22;697;51.114;6.542;2023-06-14T01:40:56;20.00;49.70
1405;DHT22;697;51.114;6.542;2023-06-14T01:43:25;20.00;49.90
1405;DHT22;697;51.114;6.542;2023-06-14T01:45:53;19.90;49.80
1405;DHT22;697;51.114;6.542;2023-06-14T01:48:21;19.90;50.00
1405;DHT22;697;51.114;6.542;2023-06-14T01:50:48;19.80;50.00
1405;DHT22;697;51.114;6.542;2023-06-14T01:53:15;19.80;50.30
1405;DHT22;697;51.114;6.542;2023-06-14T01:55:43;19.80;50.40
1405;DHT22;697;51.114;6.542;2023-06-14T01:58:14;19.80;50.60
1405;DHT22;697;51.114;6.542;2023-06-14T02:00:41;19.70;50.40
1405;DHT22;697;51.114;6.542;2023-06-14T02:03:10;19.70;50.70
1405;DHT22;697;51.114;6.542;2023-06-14T02:05:38;19.60;51.20
1405;DHT22;697;51.114;6.542;2023-06-14T02:08:05;19.50;50.70
1405;DHT22;697;51.114;6.542;2023-06-14T02:10:32;19.40;50.70
1405;DHT22;697;51.114;6.542;2023-06-14T02:13:00;19.40;50.80
1405;DHT22;697;51.114;6.542;2023-06-14T02:15:27;19.30;51.00
1405;DHT22;697;51.114;6.542;2023-06-14T02:17:59;19.30;51.20
1405;DHT22;697;51.114;6.542;2023-06-14T02:20:27;19.20;51.30
1405;DHT22;697;51.114;6.542;2023-06-14T02:22:54;19.20;51.50
1405;DHT22;697;51.114;6.542;2023-06-14T02:25:20;19.10;51.50
1405;DHT22;697;51.114;6.542;2023-06-14T02:27:47;19.10;51.70
1405;DHT22;697;51.114;6.542;2023-06-14T02:30:15;19.00;51.80
1405;DHT22;697;51.114;6.542;2023-06-14T02:32:42;19.00;52.00
1405;DHT22;697;51.114;6.542;2023-06-14T02:35:09;18.90;52.00
1405;DHT22;697;51.114;6.542;2023-06-14T02:37:36;18.90;52.30
1405;DHT22;697;51.114;6.542;2023-06-14T02:40:04;18.90;52.30
1405;DHT22;697;51.114;6.542;2023-06-14T02:42:31;18.80;52.40
1405;DHT22;697;51.114;6.542;2023-06-14T02:44:58;18.80;52.40
1405;DHT22;697;51.114;6.542;2023-06-14T02:47:26;18.70;52.50
1405;DHT22;697;51.114;6.542;2023-06-14T02:49:53;18.70;52.70
1405;DHT22;697;51.114;6.542;2023-06-14T02:52:19;18.70;52.80
1405;DHT22;697;51.114;6.542;2023-06-14T02:54:47;18.60;52.80
1405;DHT22;697;51.114;6.542;2023-06-14T02:57:14;18.60;52.90
1405;DHT22;697;51.114;6.542;2023-06-14T02:59:41;18.60;53.00
1405;DHT22;697;51.114;6.542;2023-06-14T03:02:07;18.60;53.00
1405;DHT22;697;51.114;6.542;2023-06-14T03:04:35;18.60;53.10
1405;DHT22;697;51.114;6.542;2023-06-14T03:07:04;18.60;53.10
1405;DHT22;697;51.114;6.542;2023-06-14T03:09:35;18.50;53.20
1405;DHT22;697;51.114;6.542;2023-06-14T03:12:02;18.50;53.40
1405;DHT22;697;51.114;6.542;2023-06-14T03:14:29;18.50;53.50
1405;DHT22;697;51.114;6.542;2023-06-14T03:16:56;18.50;53.60
1405;DHT22;697;51.114;6.542;2023-06-14T03:19:24;18.40;53.70
1405;DHT22;697;51.114;6.542;2023-06-14T03:21:53;18.40;53.90
1405;DHT22;697;51.114;6.542;2023-06-14T03:24:22;18.40;53.90
1405;DHT22;697;51.114;6.542;2023-06-14T03:26:49;18.40;54.00
1405;DHT22;697;51.114;6.542;2023-06-14T03:29:16;18.40;54.10
1405;DHT22;697;51.114;6.542;2023-06-14T03:31:57;18.30;54.10
1405;DHT22;697;51.114;6.542;2023-06-14T03:34:24;18.40;54.40
1405;DHT22;697;51.114;6.542;2023-06-14T03:36:50;18.40;54.50
1405;DHT22;697;51.114;6.542;2023-06-14T03:39:18;18.30;54.70
1405;DHT22;697;51.114;6.542;2023-06-14T03:41:45;18.30;54.70
1405;DHT22;697;51.114;6.542;2023-06-14T03:44:14;18.30;54.90
1405;DHT22;697;51.114;6.542;2023-06-14T03:46:41;18.30;55.00
1405;DHT22;697;51.114;6.542;2023-06-14T03:49:07;18.30;55.00
1405;DHT22;697;51.114;6.542;2023-06-14T03:51:34;18.30;55.00
1405;DHT22;697;51.114;6.542;2023-06-14T03:54:01;18.30;55.10
1405;DHT22;697;51.114;6.542;2023-06-14T03:56:29;18.20;55.10
1405;DHT22;697;51.114;6.542;2023-06-14T03:58:56;18.10;55.20
1405;DHT22;697;51.114;6.542;2023-06-14T04:01:23;18.10;55.10
1405;DHT22;697;51.114;6.542;2023-06-14T04:03:55;18.00;55.00
1405;DHT22;697;51.114;6.542;2023-06-14T04:06:23;18.00;55.00
1405;DHT22;697;51.114;6.542;2023-06-14T04:08:51;18.00;55.20
1405;DHT22;697;51.114;6.542;2023-06-14T04:11:18;17.90;55.20
1405;DHT22;697;51.114;6.542;2023-06-14T04:13:47;17.90;55.40
1405;DHT22;697;51.114;6.542;2023-06-14T04:16:13;17.90;55.70
1405;DHT22;697;51.114;6.542;2023-06-14T04:18:40;17.90;55.80
1405;DHT22;697;51.114;6.542;2023-06-14T04:21:07;17.90;56.00
1405;DHT22;697;51.114;6.542;2023-06-14T04:23:34;17.90;56.00
1405;DHT22;697;51.114;6.542;2023-06-14T04:26:00;17.90;56.00
1405;DHT22;697;51.114;6.542;2023-06-14T04:28:28;17.90;56.10
1405;DHT22;697;51.114;6.542;2023-06-14T04:30:58;17.90;56.40
1405;DHT22;697;51.114;6.542;2023-06-14T04:33:26;18.00;56.50
1405;DHT22;697;51.114;6.542;2023-06-14T04:35:53;18.00;56.70
1405;DHT22;697;51.114;6.542;2023-06-14T04:38:21;18.10;57.40
1405;DHT22;697;51.114;6.542;2023-06-14T04:40:50;18.10;56.90
1405;DHT22;697;51.114;6.542;2023-06-14T04:43:18;18.10;57.20
1405;DHT22;697;51.114;6.542;2023-06-14T04:45:52;18.10;57.40
1405;DHT22;697;51.114;6.542;2023-06-14T04:48:21;18.20;57.60
1405;DHT22;697;51.114;6.542;2023-06-14T04:50:48;18.20;58.00
1405;DHT22;697;51.114;6.542;2023-06-14T04:53:18;18.20;58.00
1405;DHT22;697;51.114;6.542;2023-06-14T04:55:46;18.30;58.10
1405;DHT22;697;51.114;6.542;2023-06-14T04:58:13;18.40;58.40
1405;DHT22;697;51.114;6.542;2023-06-14T05:00:40;18.50;58.50
1405;DHT22;697;51.114;6.542;2023-06-14T05:03:08;18.60;58.50
1405;DHT22;697;51.114;6.542;2023-06-14T05:05:39;18.60;58.50
1405;DHT22;697;51.114;6.542;2023-06-14T05:08:07;18.70;58.60
1405;DHT22;697;51.114;6.542;2023-06-14T05:10:33;18.80;58.90
1405;DHT22;697;51.114;6.542;2023-06-14T05:13:02;18.90;59.10
1405;DHT22;697;51.114;6.542;2023-06-14T05:15:28;19.00;59.40
1405;DHT22;697;51.114;6.542;2023-06-14T05:17:55;19.10;59.20
1405;DHT22;697;51.114;6.542;2023-06-14T05:20:22;19.20;59.00
1405;DHT22;697;51.114;6.542;2023-06-14T05:22:52;19.30;58.50
1405;DHT22;697;51.114;6.542;2023-06-14T05:25:19;19.30;58.50
1405;DHT22;697;51.114;6.542;2023-06-14T05:27:46;19.50;58.60
1405;DHT22;697;51.114;6.542;2023-06-14T05:30:13;19.60;58.70
1405;DHT22;697;51.114;6.542;2023-06-14T05:32:40;19.60;58.20
1405;DHT22;697;51.114;6.542;2023-06-14T05:35:08;19.70;58.30
1405;DHT22;697;51.114;6.542;2023-06-14T05:37:34;19.80;58.30
1405;DHT22;697;51.114;6.542;2023-06-14T05:40:03;19.90;58.30
1405;DHT22;697;51.114;6.542;2023-06-14T05:42:31;20.00;57.90
1405;DHT22;697;51.114;6.542;2023-06-14T05:44:58;20.10;57.40
1405;DHT22;697;51.114;6.542;2023-06-14T05:47:25;20.20;57.00
1405;DHT22;697;51.114;6.542;2023-06-14T05:49:53;20.30;56.20
1405;DHT22;697;51.114;6.542;2023-06-14T05:52:19;20.40;56.40
1405;DHT22;697;51.114;6.542;2023-06-14T05:54:47;20.50;56.30
1405;DHT22;697;51.114;6.542;2023-06-14T05:57:15;20.60;56.10
1405;DHT22;697;51.114;6.542;2023-06-14T05:59:42;20.70;55.70
1405;DHT22;697;51.114;6.542;2023-06-14T06:02:08;20.80;55.20
1405;DHT22;697;51.114;6.542;2023-06-14T06:04:35;20.90;55.20
1405;DHT22;697;51.114;6.542;2023-06-14T06:07:02;21.10;55.00
1405;DHT22;697;51.114;6.542;2023-06-14T06:09:29;21.20;55.10
1405;DHT22;697;51.114;6.542;2023-06-14T06:11:56;21.30;54.60
1405;DHT22;697;51.114;6.542;2023-06-14T06:14:24;21.40;54.60
1405;DHT22;697;51.114;6.542;2023-06-14T06:16:50;21.50;53.90
1405;DHT22;697;51.114;6.542;2023-06-14T06:19:18;21.70;53.90
1405;DHT22;697;51.114;6.542;2023-06-14T06:21:45;21.80;53.50
1405;DHT22;697;51.114;6.542;2023-06-14T06:24:12;21.90;51.80
1405;DHT22;697;51.114;6.542;2023-06-14T06:26:38;22.10;50.10
1405;DHT22;697;51.114;6.542;2023-06-14T06:29:05;22.20;49.30
1405;DHT22;697;51.114;6.542;2023-06-14T06:31:34;22.30;49.00
1405;DHT22;697;51.114;6.542;2023-06-14T06:34:01;22.50;48.30
1405;DHT22;697;51.114;6.542;2023-06-14T06:36:28;22.60;47.20
1405;DHT22;697;51.114;6.542;2023-06-14T06:38:55;22.70;46.50
1405;DHT22;697;51.114;6.542;2023-06-14T06:41:21;22.90;45.60
1405;DHT22;697;51.114;6.542;2023-06-14T06:43:48;23.00;45.00
1405;DHT22;697;51.114;6.542;2023-06-14T06:46:15;23.20;44.50
1405;DHT22;697;51.114;6.542;2023-06-14T06:48:44;23.30;44.20
1405;DHT22;697;51.114;6.542;2023-06-14T06:51:11;23.40;44.00
1405;DHT22;697;51.114;6.542;2023-06-14T06:53:39;23.60;43.40
1405;DHT22;697;51.114;6.542;2023-06-14T06:56:06;23.80;43.50
1405;DHT22;697;51.114;6.542;2023-06-14T06:58:32;23.90;43.40
1405;DHT22;697;51.114;6.542;2023-06-14T07:00:59;24.10;43.10
1405;DHT22;697;51.114;6.542;2023-06-14T07:03:26;24.30;42.60
1405;DHT22;697;51.114;6.542;2023-06-14T07:05:54;24.50;42.80
1405;DHT22;697;51.114;6.542;2023-06-14T07:08:21;24.60;42.10
1405;DHT22;697;51.114;6.542;2023-06-14T07:10:48;24.80;41.60
1405;DHT22;697;51.114;6.542;2023-06-14T07:13:14;25.00;41.20
1405;DHT22;697;51.114;6.542;2023-06-14T07:15:41;25.10;41.00
1405;DHT22;697;51.114;6.542;2023-06-14T07:18:08;25.30;40.20
1405;DHT22;697;51.114;6.542;2023-06-14T07:20:35;25.50;39.10
1405;DHT22;697;51.114;6.542;2023-06-14T07:23:05;25.60;38.90
1405;DHT22;697;51.114;6.542;2023-06-14T07:25:32;25.80;38.50
1405;DHT22;697;51.114;6.542;2023-06-14T07:27:58;25.90;37.70
1405;DHT22;697;51.114;6.542;2023-06-14T07:30:25;26.10;37.40
1405;DHT22;697;51.114;6.542;2023-06-14T07:32:52;26.20;37.10
1405;DHT22;697;51.114;6.542;2023-06-14T07:35:19;26.40;37.10
1405;DHT22;697;51.114;6.542;2023-06-14T07:37:46;26.50;36.70
1405;DHT22;697;51.114;6.542;2023-06-14T07:40:14;26.70;36.20
1405;DHT22;697;51.114;6.542;2023-06-14T07:42:41;26.80;35.70
1405;DHT22;697;51.114;6.542;2023-06-14T07:45:09;27.00;35.70
1405;DHT22;697;51.114;6.542;2023-06-14T07:47:39;27.20;35.60
1405;DHT22;697;51.114;6.542;2023-06-14T07:50:06;27.40;35.40
1405;DHT22;697;51.114;6.542;2023-06-14T07:52:33;27.60;35.20
1405;DHT22;697;51.114;6.542;2023-06-14T07:55:00;27.80;34.80
1405;DHT22;697;51.114;6.542;2023-06-14T07:57:28;28.10;34.30
1405;DHT22;697;51.114;6.542;2023-06-14T07:59:55;28.30;33.70
1405;DHT22;697;51.114;6.542;2023-06-14T08:02:21;28.50;33.20
1405;DHT22;697;51.114;6.542;2023-06-14T08:04:48;28.60;32.40
1405;DHT22;697;51.114;6.542;2023-06-14T08:07:15;28.80;32.30
1405;DHT22;697;51.114;6.542;2023-06-14T08:09:42;28.90;32.30
1405;DHT22;697;51.114;6.542;2023-06-14T08:12:09;29.20;32.40
1405;DHT22;697;51.114;6.542;2023-06-14T08:14:38;29.30;31.70
1405;DHT22;697;51.114;6.542;2023-06-14T08:17:05;29.40;30.50
1405;DHT22;697;51.114;6.542;2023-06-14T08:19:32;29.50;29.70
1405;DHT22;697;51.114;6.542;2023-06-14T08:21:59;29.60;29.60
1405;DHT22;697;51.114;6.542;2023-06-14T08:24:26;29.70;29.30
1405;DHT22;697;51.114;6.542;2023-06-14T08:26:53;29.90;29.20
1405;DHT22;697;51.114;6.542;2023-06-14T08:29:21;30.10;28.70
1405;DHT22;697;51.114;6.542;2023-06-14T08:31:49;30.30;28.70
1405;DHT22;697;51.114;6.542;2023-06-14T08:34:16;30.40;27.80
1405;DHT22;697;51.114;6.542;2023-06-14T08:36:43;30.60;27.00
1405;DHT22;697;51.114;6.542;2023-06-14T08:39:10;30.70;26.70
1405;DHT22;697;51.114;6.542;2023-06-14T08:41:37;30.80;25.60
1405;DHT22;697;51.114;6.542;2023-06-14T08:44:04;30.80;25.50
1405;DHT22;697;51.114;6.542;2023-06-14T08:46:33;30.90;25.80
1405;DHT22;697;51.114;6.542;2023-06-14T08:49:02;31.00;25.90
1405;DHT22;697;51.114;6.542;2023-06-14T08:51:31;31.10;25.30
1405;DHT22;697;51.114;6.542;2023-06-14T08:54:00;31.20;25.30
1405;DHT22;697;51.114;6.542;2023-06-14T08:56:28;31.40;25.50
1405;DHT22;697;51.114;6.542;2023-06-14T08:58:56;31.60;25.90
1405;DHT22;697;51.114;6.542;2023-06-14T09:01:26;31.70;25.00
1405;DHT22;697;51.114;6.542;2023-06-14T09:03:53;31.80;25.40
1405;DHT22;697;51.114;6.542;2023-06-14T09:06:23;32.00;25.50
1405;DHT22;697;51.114;6.542;2023-06-14T09:08:51;32.10;24.90
1405;DHT22;697;51.114;6.542;2023-06-14T09:11:18;32.20;24.20
1405;DHT22;697;51.114;6.542;2023-06-14T09:13:46;32.40;23.90
1405;DHT22;697;51.114;6.542;2023-06-14T09:16:13;32.40;24.20
1405;DHT22;697;51.114;6.542;2023-06-14T09:18:41;32.60;24.70
1405;DHT22;697;51.114;6.542;2023-06-14T09:21:11;32.80;24.60
1405;DHT22;697;51.114;6.542;2023-06-14T09:23:40;32.80;24.20
1405;DHT22;697;51.114;6.542;2023-06-14T09:26:07;33.00;23.70
1405;DHT22;697;51.114;6.542;2023-06-14T09:28:35;33.10;23.30
1405;DHT22;697;51.114;6.542;2023-06-14T09:31:02;33.30;23.50
1405;DHT22;697;51.114;6.542;2023-06-14T09:33:30;33.40;24.00
1405;DHT22;697;51.114;6.542;2023-06-14T09:35:57;33.50;24.20
1405;DHT22;697;51.114;6.542;2023-06-14T09:38:24;33.70;24.60
1405;DHT22;697;51.114;6.542;2023-06-14T09:40:56;33.80;24.40
1405;DHT22;697;51.114;6.542;2023-06-14T09:43:23;34.10;24.10
1405;DHT22;697;51.114;6.542;2023-06-14T09:45:51;34.30;24.20
1405;DHT22;697;51.114;6.542;2023-06-14T09:48:18;34.50;24.30
1405;DHT22;697;51.114;6.542;2023-06-14T09:50:46;34.70;23.60
1405;DHT22;697;51.114;6.542;2023-06-14T09:53:14;34.80;23.10
1405;DHT22;697;51.114;6.542;2023-06-14T09:55:42;34.90;22.40
1405;DHT22;697;51.114;6.542;2023-06-14T09:58:10;35.00;22.30
1405;DHT22;697;51.114;6.542;2023-06-14T10:00:39;35.20;22.40
1405;DHT22;697;51.114;6.542;2023-06-14T10:03:11;35.30;22.20
1405;DHT22;697;51.114;6.542;2023-06-14T10:05:43;35.50;22.80
1405;DHT22;697;51.114;6.542;2023-06-14T10:08:13;35.70;22.70
1405;DHT22;697;51.114;6.542;2023-06-14T10:10:43;36.00;22.10
1405;DHT22;697;51.114;6.542;2023-06-14T10:13:11;36.20;22.60
1405;DHT22;697;51.114;6.542;2023-06-14T10:15:46;36.50;22.30
1405;DHT22;697;51.114;6.542;2023-06-14T10:18:19;36.80;22.20
1405;DHT22;697;51.114;6.542;2023-06-14T10:20:55;37.10;22.10
1405;DHT22;697;51.114;6.542;2023-06-14T10:23:25;37.40;22.10
1405;DHT22;697;51.114;6.542;2023-06-14T10:25:56;37.70;21.40
1405;DHT22;697;51.114;6.542;2023-06-14T10:28:26;38.00;21.10
1405;DHT22;697;51.114;6.542;2023-06-14T10:31:03;38.30;20.30
1405;DHT22;697;51.114;6.542;2023-06-14T10:33:30;38.60;19.90
1405;DHT22;697;51.114;6.542;2023-06-14T10:36:25;38.90;20.00
1405;DHT22;697;51.114;6.542;2023-06-14T10:39:00;39.30;19.20
1405;DHT22;697;51.114;6.542;2023-06-14T10:41:28;39.60;18.80
1405;DHT22;697;51.114;6.542;2023-06-14T10:47:09;40.40;17.60
1405;DHT22;697;51.114;6.542;2023-06-14T10:49:38;40.80;17.70
1405;DHT22;697;51.114;6.542;2023-06-14T10:52:08;41.20;17.40
1405;DHT22;697;51.114;6.542;2023-06-14T10:54:56;41.60;16.60
1405;DHT22;697;51.114;6.542;2023-06-14T10:57:23;42.20;16.70
1405;DHT22;697;51.114;6.542;2023-06-14T10:59:50;42.60;15.50
1405;DHT22;697;51.114;6.542;2023-06-14T11:05:25;43.30;15.20
1405;DHT22;697;51.114;6.542;2023-06-14T11:08:04;43.70;15.40
1405;DHT22;697;51.114;6.542;2023-06-14T11:10:37;43.90;14.60
1405;DHT22;697;51.114;6.542;2023-06-14T11:13:05;44.10;14.40
1405;DHT22;697;51.114;6.542;2023-06-14T11:15:33;44.50;14.70
1405;DHT22;697;51.114;6.542;2023-06-14T11:18:02;44.70;13.90
1405;DHT22;697;51.114;6.542;2023-06-14T11:20:31;45.10;14.10
1405;DHT22;697;51.114;6.542;2023-06-14T11:22:58;45.30;12.90
1405;DHT22;697;51.114;6.542;2023-06-14T11:25:25;45.50;12.90
1405;DHT22;697;51.114;6.542;2023-06-14T11:27:53;45.50;13.30
1405;DHT22;697;51.114;6.542;2023-06-14T11:30:20;45.80;13.50
1405;DHT22;697;51.114;6.542;2023-06-14T11:32:48;46.00;13.70
1405;DHT22;697;51.114;6.542;2023-06-14T11:35:17;46.20;13.10
1405;DHT22;697;51.114;6.542;2023-06-14T11:37:44;46.40;13.00
1405;DHT22;697;51.114;6.542;2023-06-14T11:40:13;46.60;12.90
1405;DHT22;697;51.114;6.542;2023-06-14T11:42:40;46.90;13.10
1405;DHT22;697;51.114;6.542;2023-06-14T11:45:08;47.10;13.10
1405;DHT22;697;51.114;6.542;2023-06-14T11:47:36;47.30;12.50
1405;DHT22;697;51.114;6.542;2023-06-14T11:50:04;47.40;12.80
1405;DHT22;697;51.114;6.542;2023-06-14T11:52:33;47.50;12.70
1405;DHT22;697;51.114;6.542;2023-06-14T11:55:01;47.70;12.40
1405;DHT22;697;51.114;6.542;2023-06-14T11:57:30;47.80;12.50
1405;DHT22;697;51.114;6.542;2023-06-14T11:59:56;47.90;12.30
1405;DHT22;697;51.114;6.542;2023-06-14T12:02:23;48.10;12.60
1405;DHT22;697;51.114;6.542;2023-06-14T12:04:53;48.20;12.30
1405;DHT22;697;51.114;6.542;2023-06-14T12:07:22;48.30;12.20
1405;DHT22;697;51.114;6.542;2023-06-14T12:10:06;48.40;12.80
1405;DHT22;697;51.114;6.542;2023-06-14T12:12:36;48.60;12.60
1405;DHT22;697;51.114;6.542;2023-06-14T12:15:04;48.80;12.50
1405;DHT22;697;51.114;6.542;2023-06-14T12:17:32;49.00;12.40
1405;DHT22;697;51.114;6.542;2023-06-14T12:20:05;49.10;11.50
1405;DHT22;697;51.114;6.542;2023-06-14T12:22:35;49.20;11.90
1405;DHT22;697;51.114;6.542;2023-06-14T12:25:02;49.30;12.10
1405;DHT22;697;51.114;6.542;2023-06-14T12:27:30;49.50;11.70
1405;DHT22;697;51.114;6.542;2023-06-14T12:30:00;49.70;11.40
1405;DHT22;697;51.114;6.542;2023-06-14T12:32:28;49.90;11.50
1405;DHT22;697;51.114;6.542;2023-06-14T12:34:55;50.10;11.10
1405;DHT22;697;51.114;6.542;2023-06-14T12:37:22;50.20;11.20
1405;DHT22;697;51.114;6.542;2023-06-14T12:39:49;50.30;11.10
1405;DHT22;697;51.114;6.542;2023-06-14T12:42:16;50.40;11.00
1405;DHT22;697;51.114;6.542;2023-06-14T12:44:45;50.40;10.80
1405;DHT22;697;51.114;6.542;2023-06-14T12:47:11;50.40;10.90
1405;DHT22;697;51.114;6.542;2023-06-14T12:49:39;50.40;11.10
1405;DHT22;697;51.114;6.542;2023-06-14T12:52:07;50.50;10.90
1405;DHT22;697;51.114;6.542;2023-06-14T12:54:34;50.60;10.90
1405;DHT22;697;51.114;6.542;2023-06-14T12:57:01;50.80;10.60
1405;DHT22;697;51.114;6.542;2023-06-14T12:59:28;51.00;11.00
1405;DHT22;697;51.114;6.542;2023-06-14T13:02:09;51.10;10.70
1405;DHT22;697;51.114;6.542;2023-06-14T13:04:36;51.40;10.70
1405;DHT22;697;51.114;6.542;2023-06-14T13:07:03;51.60;10.50
1405;DHT22;697;51.114;6.542;2023-06-14T13:09:30;51.80;10.50
1405;DHT22;697;51.114;6.542;2023-06-14T13:11:57;52.00;10.30
1405;DHT22;697;51.114;6.542;2023-06-14T13:14:23;52.20;10.50
1405;DHT22;697;51.114;6.542;2023-06-14T13:16:51;52.30;10.20
1405;DHT22;697;51.114;6.542;2023-06-14T13:19:19;52.30;9.90
1405;DHT22;697;51.114;6.542;2023-06-14T13:21:46;52.40;10.00
1405;DHT22;697;51.114;6.542;2023-06-14T13:24:13;52.40;9.80
1405;DHT22;697;51.114;6.542;2023-06-14T13:26:40;52.40;10.00
1405;DHT22;697;51.114;6.542;2023-06-14T13:29:06;52.50;9.60
1405;DHT22;697;51.114;6.542;2023-06-14T13:31:33;52.60;9.40
1405;DHT22;697;51.114;6.542;2023-06-14T13:34:00;52.60;9.40
1405;DHT22;697;51.114;6.542;2023-06-14T13:36:28;52.70;9.70
1405;DHT22;697;51.114;6.542;2023-06-14T13:38:55;52.70;9.40
1405;DHT22;697;51.114;6.542;2023-06-14T13:41:25;52.80;9.20
1405;DHT22;697;51.114;6.542;2023-06-14T13:43:57;52.90;9.40
1405;DHT22;697;51.114;6.542;2023-06-14T13:46:23;53.00;9.20
1405;DHT22;697;51.114;6.542;2023-06-14T13:48:50;53.10;9.60
1405;DHT22;697;51.114;6.542;2023-06-14T13:51:17;53.10;9.50
1405;DHT22;697;51.114;6.542;2023-06-14T13:53:48;53.20;9.50
1405;DHT22;697;51.114;6.542;2023-06-14T13:56:16;53.30;9.40
1405;DHT22;697;51.114;6.542;2023-06-14T13:58:43;53.30;9.30
1405;DHT22;697;51.114;6.542;2023-06-14T14:01:10;53.30;9.10
1405;DHT22;697;51.114;6.542;2023-06-14T14:03:38;53.40;9.70
1405;DHT22;697;51.114;6.542;2023-06-14T14:06:05;53.50;9.40
1405;DHT22;697;51.114;6.542;2023-06-14T14:08:32;53.60;9.30
1405;DHT22;697;51.114;6.542;2023-06-14T14:11:00;53.60;8.80
1405;DHT22;697;51.114;6.542;2023-06-14T14:13:27;53.70;8.80
1405;DHT22;697;51.114;6.542;2023-06-14T14:15:54;53.80;9.20
1405;DHT22;697;51.114;6.542;2023-06-14T14:18:21;53.90;8.90
1405;DHT22;697;51.114;6.542;2023-06-14T14:20:48;53.90;8.50
1405;DHT22;697;51.114;6.542;2023-06-14T14:23:15;53.90;8.60
1405;DHT22;697;51.114;6.542;2023-06-14T14:25:42;53.90;8.60
1405;DHT22;697;51.114;6.542;2023-06-14T14:28:10;54.00;8.50
1405;DHT22;697;51.114;6.542;2023-06-14T14:30:36;54.20;8.90
1405;DHT22;697;51.114;6.542;2023-06-14T14:33:05;54.20;9.00
1405;DHT22;697;51.114;6.542;2023-06-14T14:35:32;54.10;9.00
1405;DHT22;697;51.114;6.542;2023-06-14T14:37:58;54.10;8.60
1405;DHT22;697;51.114;6.542;2023-06-14T14:40:25;54.20;8.90
1405;DHT22;697;51.114;6.542;2023-06-14T14:42:52;54.20;9.30
1405;DHT22;697;51.114;6.542;2023-06-14T14:45:20;54.10;8.80
1405;DHT22;697;51.114;6.542;2023-06-14T14:47:47;53.80;8.70
1405;DHT22;697;51.114;6.542;2023-06-14T14:50:14;53.80;8.80
1405;DHT22;697;51.114;6.542;2023-06-14T14:52:41;53.80;9.10
1405;DHT22;697;51.114;6.542;2023-06-14T14:55:08;53.80;9.00
1405;DHT22;697;51.114;6.542;2023-06-14T14:57:35;53.90;8.90
1405;DHT22;697;51.114;6.542;2023-06-14T15:00:03;53.40;8.90
1405;DHT22;697;51.114;6.542;2023-06-14T15:02:32;52.20;9.50
1405;DHT22;697;51.114;6.542;2023-06-14T15:04:59;50.80;10.40
1405;DHT22;697;51.114;6.542;2023-06-14T15:07:26;50.40;11.10
1405;DHT22;697;51.114;6.542;2023-06-14T15:09:53;50.50;10.90
1405;DHT22;697;51.114;6.542;2023-06-14T15:12:20;50.70;11.30
1405;DHT22;697;51.114;6.542;2023-06-14T15:14:49;51.00;10.70
1405;DHT22;697;51.114;6.542;2023-06-14T15:17:16;51.20;10.20
1405;DHT22;697;51.114;6.542;2023-06-14T15:19:45;51.40;10.60
1405;DHT22;697;51.114;6.542;2023-06-14T15:22:12;51.80;10.00
1405;DHT22;697;51.114;6.542;2023-06-14T15:24:40;51.80;9.70
1405;DHT22;697;51.114;6.542;2023-06-14T15:27:06;51.10;10.10
1405;DHT22;697;51.114;6.542;2023-06-14T15:29:33;49.80;10.60
1405;DHT22;697;51.114;6.542;2023-06-14T15:32:00;48.40;11.50
1405;DHT22;697;51.114;6.542;2023-06-14T15:34:27;47.80;12.10
1405;DHT22;697;51.114;6.542;2023-06-14T15:36:55;47.80;12.00
1405;DHT22;697;51.114;6.542;2023-06-14T15:39:22;47.90;11.60
1405;DHT22;697;51.114;6.542;2023-06-14T15:41:49;48.20;11.70
1405;DHT22;697;51.114;6.542;2023-06-14T15:44:16;48.50;11.40
1405;DHT22;697;51.114;6.542;2023-06-14T15:46:43;48.70;11.30
1405;DHT22;697;51.114;6.542;2023-06-14T15:49:11;48.90;11.50
1405;DHT22;697;51.114;6.542;2023-06-14T15:51:38;49.20;11.60
1405;DHT22;697;51.114;6.542;2023-06-14T15:54:07;49.30;11.70
1405;DHT22;697;51.114;6.542;2023-06-14T15:56:33;48.90;11.40
1405;DHT22;697;51.114;6.542;2023-06-14T15:59:00;48.60;11.60
1405;DHT22;697;51.114;6.542;2023-06-14T16:01:28;48.60;10.60
1405;DHT22;697;51.114;6.542;2023-06-14T16:03:54;48.50;10.60
1405;DHT22;697;51.114;6.542;2023-06-14T16:06:21;48.60;11.40
1405;DHT22;697;51.114;6.542;2023-06-14T16:08:48;48.50;11.40
1405;DHT22;697;51.114;6.542;2023-06-14T16:11:17;48.20;11.70
1405;DHT22;697;51.114;6.542;2023-06-14T16:13:45;47.40;12.40
1405;DHT22;697;51.114;6.542;2023-06-14T16:16:12;46.70;12.90
1405;DHT22;697;51.114;6.542;2023-06-14T16:18:39;46.20;12.70
1405;DHT22;697;51.114;6.542;2023-06-14T16:21:06;45.80;13.00
1405;DHT22;697;51.114;6.542;2023-06-14T16:23:35;45.30;13.30
1405;DHT22;697;51.114;6.542;2023-06-14T16:26:02;44.60;13.60
1405;DHT22;697;51.114;6.542;2023-06-14T16:28:31;43.90;13.70
1405;DHT22;697;51.114;6.542;2023-06-14T16:30:58;43.20;14.30